Time;durP1;ratioP1;P1;durP2;ratioP2;P2;SDS_P1;SDS_P2;PMS_P1;PMS_P2;Temp;Humidity;BMP_temperature;BMP_pressure;BME280_temperature;BME280_humidity;BME280_pressure;Samples;Min_cycle;Max_cycle;Signal;HPM_P1;HPM_P2
2022/12/26 00:00:34;;;;;;;14.88;8.02;;;12.30;71.20;;;;;;5981961;29;20111;-83
2022/12/26 00:03:35;;;;;;;14.93;7.35;;;12.20;71.20;;;;;;5984219;29;20562;-83
2022/12/26 00:06:36;;;;;;;20.85;7.47;;;12.30;71.30;;;;;;5988017;29;20042;-82
2022/12/26 00:09:37;;;;;;;15.45;7.88;;;12.30;71.20;;;;;;5987515;29;20034;-84
2022/12/26 00:12:37;;;;;;;19.75;8.77;;;12.30;71.30;;;;;;5987072;29;20048;-83
2022/12/26 00:15:42;;;;;;;14.20;7.15;;;12.30;71.30;;;;;;5984971;29;20121;-83
2022/12/26 00:18:43;;;;;;;17.27;8.32;;;12.30;71.30;;;;;;5986102;29;20031;-84
2022/12/26 00:21:44;;;;;;;17.45;7.82;;;12.30;71.40;;;;;;5988301;29;20452;-83
2022/12/26 00:24:46;;;;;;;15.93;8.07;;;12.30;71.40;;;;;;5987460;29;20049;-83
2022/12/26 00:27:47;;;;;;;18.45;8.32;;;12.30;71.40;;;;;;5971559;29;20117;-83
2022/12/26 00:30:48;;;;;;;20.08;7.93;;;12.30;71.30;;;;;;5986321;29;20030;-83
2022/12/26 00:33:49;;;;;;;20.88;8.65;;;12.30;71.20;;;;;;5986147;29;20035;-83
2022/12/26 00:36:50;;;;;;;20.65;8.05;;;12.30;71.20;;;;;;5980200;29;20042;-82
2022/12/26 00:39:52;;;;;;;18.65;7.65;;;12.30;71.00;;;;;;5984142;29;20046;-84
2022/12/26 00:42:53;;;;;;;16.38;7.60;;;12.20;70.90;;;;;;6001981;29;20053;-83
2022/12/26 00:45:54;;;;;;;19.92;8.02;;;12.20;71.00;;;;;;5988442;29;20038;-83
2022/12/26 00:48:55;;;;;;;15.13;8.00;;;12.20;71.10;;;;;;5988388;29;20038;-83
2022/12/26 00:51:57;;;;;;;16.42;7.93;;;12.20;71.00;;;;;;5989760;29;20129;-83
2022/12/26 00:54:58;;;;;;;15.18;7.03;;;12.20;71.10;;;;;;5988604;29;20031;-84
2022/12/26 00:57:59;;;;;;;15.05;7.10;;;12.10;71.00;;;;;;5985647;29;20047;-83
2022/12/26 01:01:29;;;;;;;20.95;8.05;;;12.20;70.90;;;;;;5980171;29;20501;-83
2022/12/26 01:04:30;;;;;;;15.98;6.80;;;12.20;70.90;;;;;;5971880;29;20413;-84
2022/12/26 01:07:36;;;;;;;17.85;7.28;;;12.10;70.80;;;;;;5984020;29;20376;-83
2022/12/26 01:10:41;;;;;;;20.00;8.43;;;12.10;70.90;;;;;;5987574;29;20054;-83
2022/12/26 01:13:42;;;;;;;14.55;7.30;;;12.10;70.90;;;;;;5988808;29;20043;-83
2022/12/26 01:16:45;;;;;;;15.90;7.80;;;12.10;70.80;;;;;;5987075;29;20048;-83
2022/12/26 01:19:46;;;;;;;26.13;7.53;;;12.00;70.70;;;;;;5985763;29;20120;-83
2022/12/26 01:22:47;;;;;;;16.05;7.22;;;12.00;70.70;;;;;;5987044;29;20046;-82
2022/12/26 01:25:48;;;;;;;13.00;6.93;;;12.00;70.60;;;;;;5986320;29;20046;-83
2022/12/26 01:28:50;;;;;;;13.13;6.97;;;12.00;70.60;;;;;;5985001;29;20035;-83
2022/12/26 01:31:50;;;;;;;12.65;6.18;;;12.00;70.70;;;;;;5985326;29;20034;-83
2022/12/26 01:34:54;;;;;;;13.30;6.57;;;12.00;70.60;;;;;;5984139;29;20088;-83
2022/12/26 01:37:55;;;;;;;16.50;7.40;;;12.00;70.70;;;;;;5985100;29;20118;-82
2022/12/26 01:44:54;;;;;;;13.60;6.65;;;11.90;70.90;;;;;;5984704;29;20121;-83
2022/12/26 01:48:04;;;;;;;13.95;6.55;;;11.90;71.00;;;;;;5969799;29;20038;-85
2022/12/26 01:51:05;;;;;;;13.32;6.82;;;12.00;71.00;;;;;;5983153;29;20356;-83
2022/12/26 01:54:09;;;;;;;12.73;7.38;;;12.00;71.00;;;;;;5986571;29;20129;-83
2022/12/26 01:57:15;;;;;;;18.88;7.63;;;11.90;70.70;;;;;;5970883;29;20038;-84
2022/12/26 02:00:17;;;;;;;15.90;6.65;;;11.90;70.50;;;;;;5969650;29;20132;-84
2022/12/26 02:06:40;;;;;;;15.50;7.43;;;11.80;70.30;;;;;;5986548;29;20026;-84
2022/12/26 02:09:41;;;;;;;16.08;6.65;;;11.70;70.30;;;;;;5987073;29;20038;-83
2022/12/26 02:12:44;;;;;;;14.00;7.03;;;11.60;70.50;;;;;;6000617;29;20072;-84
2022/12/26 02:15:47;;;;;;;15.55;7.18;;;11.60;70.50;;;;;;5989869;29;20030;-83
2022/12/26 02:18:47;;;;;;;11.48;6.15;;;11.50;70.40;;;;;;5973088;29;20134;-83
2022/12/26 02:22:04;;;;;;;13.57;7.43;;;11.50;70.60;;;;;;6013840;29;20046;-83
2022/12/26 02:25:17;;;;;;;13.00;6.75;;;11.40;70.60;;;;;;5987971;29;20042;-84
2022/12/26 02:28:51;;;;;;;14.30;6.75;;;11.40;70.70;;;;;;5961543;29;20042;-83
2022/12/26 02:32:05;;;;;;;17.75;6.90;;;11.30;70.80;;;;;;5990461;29;20046;-82
2022/12/26 02:35:20;;;;;;;12.88;5.78;;;11.20;70.80;;;;;;5985682;29;20090;-81
2022/12/26 02:39:07;;;;;;;9.85;6.35;;;11.20;70.90;;;;;;5983599;29;20062;-83
2022/12/26 02:42:45;;;;;;;9.23;5.15;;;11.10;70.90;;;;;;5909808;29;20055;-83
2022/12/26 03:14:00;;;;;;;9.05;5.38;;;10.60;71.20;;;;;;5956941;29;20433;-83
2022/12/26 03:17:20;;;;;;;13.75;6.00;;;10.60;71.10;;;;;;5984263;29;20035;-83
2022/12/26 03:20:28;;;;;;;8.93;5.53;;;10.60;71.10;;;;;;5975951;29;20034;-82
2022/12/26 03:23:30;;;;;;;;;;;10.60;71.30;;;;;;5985875;29;20302;-81
2022/12/26 03:26:38;;;;;;;9.45;5.25;;;10.60;71.30;;;;;;5992672;29;20801;-81
2022/12/26 03:32:58;;;;;;;14.52;5.80;;;10.50;71.30;;;;;;5984160;29;20042;-81
2022/12/26 03:36:00;;;;;;;10.63;6.15;;;10.50;71.30;;;;;;5984971;29;20058;-83
2022/12/26 04:19:37;;;;;;;10.32;6.20;;;10.40;71.90;;;;;;5849341;30;20048;-82
2022/12/26 04:44:02;;;;;;;13.30;5.80;;;10.50;72.20;;;;;;5987881;29;20030;-83
2022/12/26 04:47:03;;;;;;;19.95;6.38;;;10.60;72.30;;;;;;5979241;29;20462;-83
2022/12/26 04:50:11;;;;;;;11.13;5.10;;;10.70;72.40;;;;;;5985740;29;20042;-83
2022/12/26 04:53:14;;;;;;;12.95;5.05;;;10.70;72.40;;;;;;5975595;29;20038;-82
2022/12/26 04:56:16;;;;;;;8.52;4.80;;;10.80;72.40;;;;;;5972826;29;20066;-82
2022/12/26 04:59:18;;;;;;;14.05;6.10;;;10.80;72.50;;;;;;5958620;29;20034;-83
2022/12/26 05:12:20;;;;;;;13.45;5.20;;;11.00;72.30;;;;;;5985965;29;20045;-83
2022/12/26 05:15:21;;;;;;;13.20;6.20;;;11.00;72.10;;;;;;5983362;29;20034;-83
2022/12/26 05:31:40;;;;;;;10.45;5.25;;;10.70;71.20;;;;;;5977932;29;20030;-83
2022/12/26 05:34:41;;;;;;;9.68;5.13;;;10.70;71.10;;;;;;5979799;29;20046;-84
2022/12/26 05:37:42;;;;;;;10.07;5.18;;;10.70;71.70;;;;;;5994591;29;20034;-82
2022/12/26 05:40:43;;;;;;;10.13;4.72;;;10.60;70.80;;;;;;5980578;29;20111;-84
2022/12/26 05:43:45;;;;;;;7.20;4.80;;;10.50;70.90;;;;;;5980099;29;20042;-83
2022/12/26 05:46:45;;;;;;;7.00;4.55;;;10.50;71.80;;;;;;5978149;29;20034;-83
2022/12/26 05:49:47;;;;;;;6.47;4.35;;;10.50;70.70;;;;;;5983013;29;20126;-83
2022/12/26 05:52:48;;;;;;;8.65;5.22;;;10.40;70.50;;;;;;5989377;29;20564;-83
2022/12/26 05:55:48;;;;;;;12.00;6.05;;;10.40;70.60;;;;;;5983172;29;20050;-83
2022/12/26 05:58:55;;;;;;;10.85;5.38;;;10.30;70.80;;;;;;5978000;29;20037;-83
2022/12/26 06:01:55;;;;;;;12.63;5.65;;;10.30;70.80;;;;;;5969280;29;20113;-84
2022/12/26 06:04:56;;;;;;;9.25;5.07;;;10.30;70.80;;;;;;5978658;29;20368;-83
2022/12/26 06:07:58;;;;;;;13.65;5.47;;;10.30;70.80;;;;;;5997438;29;20504;-84
2022/12/26 06:11:02;;;;;;;8.48;5.50;;;10.20;70.70;;;;;;5988168;29;20094;-82
2022/12/26 06:14:03;;;;;;;11.40;6.30;;;10.20;70.80;;;;;;5985090;29;20138;-85
2022/12/26 06:17:04;;;;;;;12.05;5.22;;;10.10;70.70;;;;;;5985013;29;20043;-82
2022/12/26 06:20:05;;;;;;;10.88;5.20;;;10.00;70.90;;;;;;5984643;29;20087;-82
2022/12/26 06:23:06;;;;;;;13.20;6.00;;;10.00;71.00;;;;;;5973150;29;20038;-82
2022/12/26 06:26:08;;;;;;;14.25;6.15;;;10.00;71.20;;;;;;5985401;29;20030;-82
2022/12/26 06:29:09;;;;;;;13.77;6.60;;;10.00;71.40;;;;;;5990908;29;20041;-83
2022/12/26 06:32:10;;;;;;;12.90;5.13;;;10.10;71.30;;;;;;5959965;29;20034;-82
2022/12/26 06:35:11;;;;;;;11.15;5.20;;;10.00;71.10;;;;;;5968042;29;20046;-82
2022/12/26 06:38:13;;;;;;;12.10;5.47;;;10.10;71.10;;;;;;5983847;29;20095;-83
2022/12/26 06:41:16;;;;;;;12.20;6.35;;;10.00;71.10;;;;;;5983247;29;20034;-82
2022/12/26 06:44:17;;;;;;;12.68;5.28;;;10.00;71.20;;;;;;5982147;29;20042;-82
2022/12/26 06:47:18;;;;;;;9.45;5.72;;;10.10;71.30;;;;;;5982565;29;20102;-84
2022/12/26 06:50:22;;;;;;;14.52;5.85;;;10.10;71.30;;;;;;5985728;29;20039;-82
2022/12/26 06:53:23;;;;;;;13.82;6.05;;;10.20;71.20;;;;;;5963951;29;20484;-83
2022/12/26 06:56:26;;;;;;;13.98;5.60;;;10.20;71.00;;;;;;5985729;29;20051;-83
2022/12/26 06:59:27;;;;;;;11.48;5.47;;;10.20;71.00;;;;;;5983943;29;20468;-83
2022/12/26 07:02:28;;;;;;;11.55;5.85;;;10.20;70.90;;;;;;5993861;29;20093;-83
2022/12/26 07:05:29;;;;;;;12.18;5.82;;;10.20;70.90;;;;;;5988055;29;20049;-83
2022/12/26 07:08:30;;;;;;;13.05;6.05;;;10.20;70.70;;;;;;5985611;29;20047;-83
2022/12/26 07:11:34;;;;;;;21.33;5.47;;;10.10;70.60;;;;;;5982216;29;20055;-82
2022/12/26 07:14:35;;;;;;;8.40;4.57;;;10.10;70.60;;;;;;5980177;29;20476;-82
2022/12/26 07:17:37;;;;;;;10.55;4.82;;;10.00;70.60;;;;;;5995725;29;20420;-83
2022/12/26 07:20:38;;;;;;;12.13;5.30;;;9.90;70.70;;;;;;5985831;29;20066;-82
2022/12/26 07:23:40;;;;;;;11.27;5.57;;;9.90;71.00;;;;;;5968023;29;20120;-82
2022/12/26 07:26:41;;;;;;;12.98;5.50;;;9.80;71.30;;;;;;5980197;29;20400;-82
2022/12/26 07:29:43;;;;;;;11.70;5.90;;;9.90;71.50;;;;;;5990145;29;20133;-82
2022/12/26 07:32:44;;;;;;;12.40;4.85;;;9.80;71.80;;;;;;5997578;29;20038;-82
2022/12/26 07:35:44;;;;;;;10.75;5.18;;;9.80;72.10;;;;;;5982745;29;20705;-81
2022/12/26 07:38:46;;;;;;;8.82;4.13;;;9.90;72.50;;;;;;5989554;29;20048;-81
2022/12/26 07:41:57;;;;;;;10.30;5.10;;;9.90;72.50;;;;;;5980859;29;20026;-81
2022/12/26 07:44:58;;;;;;;9.95;4.57;;;9.90;72.60;;;;;;5989937;29;20476;-84
2022/12/26 07:47:59;;;;;;;14.30;3.88;;;9.90;72.60;;;;;;5999809;29;20043;-84
2022/12/26 07:51:03;;;;;;;18.45;5.45;;;10.00;72.60;;;;;;5985528;29;20094;-83
2022/12/26 07:54:04;;;;;;;7.72;3.83;;;10.00;72.70;;;;;;5985026;29;20041;-80
2022/12/26 07:57:05;;;;;;;9.88;4.53;;;10.10;72.70;;;;;;5995516;29;20097;-81
2022/12/26 08:00:10;;;;;;;12.60;4.82;;;10.20;72.50;;;;;;5978198;29;20072;-80
2022/12/26 08:03:13;;;;;;;8.95;4.20;;;10.20;72.10;;;;;;5983430;29;20464;-77
2022/12/26 08:06:14;;;;;;;9.20;3.95;;;10.20;71.60;;;;;;5985519;29;20118;-77
2022/12/26 08:09:15;;;;;;;7.60;4.63;;;10.20;71.50;;;;;;5984468;29;20038;-81
2022/12/26 08:12:20;;;;;;;12.38;4.57;;;10.20;71.30;;;;;;5985175;29;20082;-79
2022/12/26 08:15:21;;;;;;;11.40;4.82;;;10.20;71.10;;;;;;5985812;29;20048;-80
2022/12/26 08:18:22;;;;;;;12.02;4.03;;;10.10;70.70;;;;;;5983994;29;20042;-79
2022/12/26 08:21:24;;;;;;;9.85;4.40;;;10.10;70.70;;;;;;5982745;29;20488;-79
2022/12/26 08:24:25;;;;;;;8.88;4.63;;;10.10;70.60;;;;;;5970163;29;20050;-77
2022/12/26 08:27:26;;;;;;;10.35;5.20;;;10.20;70.70;;;;;;5998480;29;20103;-78
2022/12/26 08:30:27;;;;;;;10.63;4.15;;;10.20;70.70;;;;;;5973324;29;20506;-79
2022/12/26 08:33:28;;;;;;;7.25;4.50;;;10.30;70.90;;;;;;5963326;29;20499;-79
2022/12/26 08:36:31;;;;;;;10.52;4.82;;;10.30;70.80;;;;;;5965758;29;20061;-77
2022/12/26 08:39:35;;;;;;;10.30;4.30;;;10.40;70.90;;;;;;5982147;29;20484;-78
2022/12/26 08:42:43;;;;;;;26.05;5.05;;;10.50;71.10;;;;;;5981980;29;20329;-79
2022/12/26 08:45:59;;;;;;;9.75;5.60;;;10.50;71.00;;;;;;5984597;29;20034;-76
2022/12/26 08:49:00;;;;;;;15.68;6.53;;;10.70;71.00;;;;;;5983046;29;20109;-81
2022/12/26 08:52:01;;;;;;;8.57;5.25;;;10.80;70.90;;;;;;5994015;29;20099;-78
2022/12/26 08:55:04;;;;;;;10.32;5.03;;;10.90;70.80;;;;;;6000280;29;20118;-79
2022/12/26 08:58:05;;;;;;;13.88;5.65;;;11.10;70.50;;;;;;5982818;29;20049;-77
2022/12/26 09:01:15;;;;;;;9.82;5.28;;;11.20;70.30;;;;;;5982901;29;20520;-82
2022/12/26 09:04:16;;;;;;;13.00;6.85;;;11.30;70.00;;;;;;5981724;29;20155;-75
2022/12/26 09:07:17;;;;;;;7.68;4.25;;;11.40;69.80;;;;;;5962858;29;20048;-78
2022/12/26 09:10:18;;;;;;;6.50;4.10;;;11.50;69.70;;;;;;5980134;29;20464;-78
2022/12/26 09:13:19;;;;;;;8.73;4.43;;;11.70;69.60;;;;;;5977458;29;20054;-79
2022/12/26 09:16:24;;;;;;;9.27;5.07;;;11.80;69.30;;;;;;5980016;29;20034;-79
2022/12/26 09:19:28;;;;;;;25.27;4.82;;;12.00;69.20;;;;;;5971034;29;20127;-80
2022/12/26 09:25:48;;;;;;;10.13;5.18;;;12.30;68.70;;;;;;5982791;29;20053;-80
2022/12/26 09:28:51;;;;;;;9.18;4.88;;;12.40;68.50;;;;;;5987346;29;20030;-80
2022/12/26 09:31:54;;;;;;;14.75;6.10;;;12.60;68.40;;;;;;5985772;29;20052;-80
2022/12/26 09:34:56;;;;;;;13.05;5.63;;;12.80;68.20;;;;;;5983419;29;20129;-81
2022/12/26 09:37:57;;;;;;;8.88;5.55;;;13.00;67.90;;;;;;5977624;29;20039;-78
2022/12/26 09:41:27;;;;;;;17.23;6.65;;;13.10;67.50;;;;;;5974584;29;20031;-79
2022/12/26 09:44:47;;;;;;;16.50;5.18;;;13.20;67.10;;;;;;5971333;29;20095;-80
2022/12/26 09:47:57;;;;;;;11.85;5.80;;;13.40;66.90;;;;;;5980535;29;20491;-80
2022/12/26 09:50:58;;;;;;;15.57;5.97;;;13.50;66.40;;;;;;5977713;29;20053;-80
2022/12/26 09:54:00;;;;;;;10.10;5.22;;;13.60;66.30;;;;;;5981429;29;20111;-81
2022/12/26 09:57:06;;;;;;;8.88;4.78;;;13.70;66.10;;;;;;5980207;29;20053;-80
2022/12/26 10:00:16;;;;;;;8.95;4.88;;;13.70;65.60;;;;;;5976964;29;20468;-79
2022/12/26 10:03:22;;;;;;;14.25;6.45;;;13.80;65.40;;;;;;5977332;29;20034;-78
2022/12/26 10:06:26;;;;;;;14.50;6.38;;;13.90;65.30;;;;;;5984518;29;20038;-77
2022/12/26 10:09:48;;;;;;;19.67;8.35;;;14.00;66.20;;;;;;5965087;29;20343;-76
2022/12/26 10:13:05;;;;;;;14.55;6.47;;;14.00;65.10;;;;;;5982175;29;20064;-75
2022/12/26 10:16:17;;;;;;;16.92;6.22;;;14.10;65.00;;;;;;6000700;29;20033;-77
2022/12/26 10:19:56;;;;;;;18.60;8.80;;;14.20;65.00;;;;;;5984017;29;20109;-77
2022/12/26 10:23:14;;;;;;;18.17;8.93;;;14.30;64.90;;;;;;5977879;29;20114;-78
2022/12/26 10:26:23;;;;;;;15.13;7.43;;;14.30;64.40;;;;;;5979146;29;20402;-75
2022/12/26 10:29:32;;;;;;;13.13;6.75;;;14.30;64.30;;;;;;5981202;29;20042;-78
2022/12/26 10:32:45;;;;;;;11.40;6.45;;;14.30;64.20;;;;;;5994004;29;20471;-79
2022/12/26 10:35:46;;;;;;;11.85;5.85;;;14.20;64.00;;;;;;5982412;29;20476;-76
2022/12/26 10:38:51;;;;;;;9.38;5.80;;;14.30;64.30;;;;;;5967349;29;20118;-76
2022/12/26 10:41:57;;;;;;;11.32;5.80;;;14.30;64.30;;;;;;5980010;29;20581;-77
2022/12/26 10:44:59;;;;;;;14.27;5.72;;;14.30;64.20;;;;;;5983526;29;20470;-79
2022/12/26 10:48:00;;;;;;;17.25;6.53;;;14.30;64.10;;;;;;5993340;29;20125;-76
2022/12/26 10:51:02;;;;;;;12.48;6.05;;;14.30;64.20;;;;;;5994203;29;20038;-75
2022/12/26 10:54:15;;;;;;;12.85;6.20;;;14.20;64.20;;;;;;5961282;29;20055;-76
2022/12/26 10:57:16;;;;;;;17.45;7.72;;;14.20;64.20;;;;;;5984749;29;20464;-75
2022/12/26 11:00:24;;;;;;;12.23;6.70;;;14.20;64.20;;;;;;5973985;29;20035;-77
2022/12/26 11:03:24;;;;;;;14.15;7.00;;;14.10;64.30;;;;;;5990927;29;20372;-76
2022/12/26 11:06:40;;;;;;;9.05;5.55;;;14.10;64.40;;;;;;5982550;29;20038;-76
2022/12/26 11:09:44;;;;;;;25.58;11.35;;;14.10;64.60;;;;;;5982828;29;20038;-77
2022/12/26 11:12:50;;;;;;;18.10;7.80;;;14.10;64.40;;;;;;5981410;29;20058;-77
2022/12/26 11:15:52;;;;;;;16.15;6.07;;;14.10;64.50;;;;;;5983957;29;20050;-77
2022/12/26 11:18:54;;;;;;;14.88;6.93;;;14.10;64.70;;;;;;5984590;29;20041;-76
2022/12/26 11:22:13;;;;;;;10.55;5.68;;;14.00;64.60;;;;;;5968207;29;20042;-75
2022/12/26 11:25:21;;;;;;;15.00;7.05;;;14.00;64.60;;;;;;5978719;29;20039;-77
2022/12/26 11:28:32;;;;;;;11.27;6.22;;;14.10;64.80;;;;;;5968151;29;20376;-77
2022/12/26 11:31:33;;;;;;;11.85;5.70;;;14.10;64.80;;;;;;5980831;29;20056;-79
2022/12/26 11:34:45;;;;;;;15.23;6.45;;;14.10;64.70;;;;;;5988387;29;20039;-76
2022/12/26 11:37:50;;;;;;;14.70;5.55;;;14.20;64.80;;;;;;5983499;29;20034;-75
2022/12/26 11:41:30;;;;;;;10.88;6.28;;;14.20;64.70;;;;;;5974092;29;20428;-77
2022/12/26 11:44:23;;;;;;;11.82;6.43;;;14.20;65.40;;;;;;5986681;29;20077;-78
2022/12/26 11:47:28;;;;;;;11.52;6.85;;;14.30;64.40;;;;;;5981950;29;20065;-78
2022/12/26 11:50:30;;;;;;;13.35;6.25;;;14.40;64.20;;;;;;5967918;29;20040;-78
2022/12/26 11:53:33;;;;;;;20.92;9.00;;;14.50;64.20;;;;;;5982615;29;20127;-77
2022/12/26 11:56:34;;;;;;;27.02;12.25;;;14.70;64.10;;;;;;5983902;29;20034;-77
2022/12/26 11:59:35;;;;;;;23.40;10.65;;;14.80;63.60;;;;;;5976408;29;20392;-77
2022/12/26 12:02:39;;;;;;;20.50;8.13;;;14.90;63.40;;;;;;5973745;29;20042;-78
2022/12/26 12:06:06;;;;;;;9.95;5.72;;;14.90;63.00;;;;;;5987579;29;20402;-77
2022/12/26 12:09:36;;;;;;;17.40;7.10;;;14.90;62.90;;;;;;5965399;29;20046;-78
2022/12/26 12:12:48;;;;;;;16.45;6.93;;;14.90;63.00;;;;;;5960631;29;20395;-78
2022/12/26 12:15:56;;;;;;;11.10;5.95;;;15.00;63.10;;;;;;5958426;29;20413;-78
2022/12/26 12:19:24;;;;;;;10.40;5.40;;;15.00;63.00;;;;;;5973417;29;20034;-78
2022/12/26 12:22:43;;;;;;;13.52;6.32;;;15.10;63.10;;;;;;5980757;29;20039;-77
2022/12/26 12:25:55;;;;;;;16.00;6.95;;;15.20;62.70;;;;;;5981231;29;20045;-77
2022/12/26 12:29:02;;;;;;;15.20;7.47;;;15.20;62.60;;;;;;5974710;29;20041;-77
2022/12/26 12:32:25;;;;;;;16.98;6.60;;;15.30;62.80;;;;;;5970973;29;20038;-77
2022/12/26 12:35:53;;;;;;;15.50;6.65;;;15.30;62.70;;;;;;5994946;29;20042;-77
2022/12/26 12:39:05;;;;;;;13.70;6.13;;;15.30;62.70;;;;;;5991719;29;20060;-76
2022/12/26 12:42:23;;;;;;;17.00;7.35;;;15.30;62.50;;;;;;5979256;29;20424;-77
2022/12/26 12:45:37;;;;;;;11.70;6.45;;;15.30;62.60;;;;;;5966375;29;20030;-77
2022/12/26 12:48:50;;;;;;;16.35;6.68;;;15.20;62.70;;;;;;5981150;29;20157;-77
2022/12/26 12:52:05;;;;;;;11.68;5.60;;;15.20;62.90;;;;;;5982282;29;20038;-78
2022/12/26 12:55:06;;;;;;;10.43;5.78;;;15.20;63.00;;;;;;5982375;29;20058;-78
2022/12/26 12:58:34;;;;;;;10.93;5.85;;;15.30;62.90;;;;;;5965365;29;20191;-77
2022/12/26 13:01:41;;;;;;;12.85;6.47;;;15.40;63.00;;;;;;5967768;29;20046;-77
2022/12/26 13:04:47;;;;;;;12.80;6.55;;;15.40;62.70;;;;;;5982374;29;20042;-78
2022/12/26 13:07:57;;;;;;;13.10;7.07;;;15.60;62.70;;;;;;5981945;29;20045;-78
2022/12/26 13:11:12;;;;;;;15.98;6.10;;;15.60;62.40;;;;;;5996211;29;20179;-77
2022/12/26 13:14:29;;;;;;;11.00;6.10;;;15.60;62.20;;;;;;5981191;29;20372;-78
2022/12/26 13:17:44;;;;;;;13.55;6.40;;;15.70;62.30;;;;;;5995203;29;20460;-78
2022/12/26 13:21:10;;;;;;;13.27;7.18;;;15.80;62.20;;;;;;5987050;29;20039;-78
2022/12/26 13:24:22;;;;;;;14.82;6.43;;;15.80;62.10;;;;;;5961178;29;20076;-77
2022/12/26 13:27:25;;;;;;;14.07;6.53;;;15.90;61.90;;;;;;5979959;29;20035;-77
2022/12/26 13:30:28;;;;;;;11.82;6.38;;;16.00;61.60;;;;;;5983108;29;20496;-77
2022/12/26 13:33:30;;;;;;;14.18;6.38;;;16.10;61.20;;;;;;5980223;29;20039;-77
2022/12/26 13:36:40;;;;;;;11.90;5.75;;;16.20;61.00;;;;;;6010300;29;20114;-78
2022/12/26 13:39:41;;;;;;;18.23;5.97;;;16.30;60.90;;;;;;5986819;29;20030;-78
2022/12/26 13:46:51;;;;;;;13.63;6.35;;;16.30;60.60;;;;;;5978829;29;20046;-78
2022/12/26 13:49:52;;;;;;;11.70;6.28;;;16.30;60.40;;;;;;5981815;29;20460;-77
2022/12/26 13:52:53;;;;;;;12.70;6.30;;;16.30;60.30;;;;;;5980684;29;20050;-78
2022/12/26 13:56:01;;;;;;;14.40;6.63;;;16.30;61.00;;;;;;5981124;29;20171;-78
2022/12/26 13:59:24;;;;;;;12.45;5.32;;;16.20;60.10;;;;;;5970759;29;20543;-79
2022/12/26 14:02:49;;;;;;;10.27;6.07;;;16.20;60.40;;;;;;5969342;29;20092;-79
2022/12/26 14:06:09;;;;;;;12.25;5.78;;;16.20;60.20;;;;;;5981654;29;20042;-78
2022/12/26 14:10:06;;;;;;;17.13;6.57;;;16.30;60.50;;;;;;5973884;29;20030;-78
2022/12/26 14:13:54;;;;;;;9.90;6.05;;;16.00;60.40;;;;;;5902114;30;20096;-79
2022/12/26 14:17:08;;;;;;;10.23;5.88;;;15.90;60.70;;;;;;5938361;30;20039;-77
2022/12/26 14:20:27;;;;;;;14.45;6.75;;;15.90;60.60;;;;;;5932013;30;20039;-78
2022/12/26 14:23:57;;;;;;;19.15;6.82;;;15.90;60.80;;;;;;5891720;30;20052;-78
2022/12/26 14:27:23;;;;;;;16.55;6.85;;;15.90;60.70;;;;;;5897704;30;20092;-78
2022/12/26 14:31:00;;;;;;;11.10;6.07;;;16.00;60.70;;;;;;5903257;30;20068;-78
2022/12/26 14:34:38;;;;;;;14.73;5.93;;;16.00;60.70;;;;;;5911200;30;20044;-79
2022/12/26 14:38:08;;;;;;;15.40;6.68;;;16.10;61.40;;;;;;5897235;30;20044;-78
2022/12/26 14:43:09;;;;;;;14.35;7.22;;;16.20;60.40;;;;;;5912632;30;20043;-77
2022/12/26 14:44:33;;;;;;;14.20;6.72;;;16.20;60.00;;;;;;5955974;29;20027;-78
2022/12/26 14:47:43;;;;;;;13.18;6.70;;;16.20;60.00;;;;;;5969146;29;20395;-79
2022/12/26 14:50:44;;;;;;;15.30;7.38;;;16.10;60.20;;;;;;5938131;29;20384;-77
2022/12/26 14:54:08;;;;;;;16.35;7.97;;;16.10;60.40;;;;;;5977412;29;20046;-79
2022/12/26 14:57:38;;;;;;;14.75;7.18;;;16.10;60.40;;;;;;5956720;29;20034;-77
2022/12/26 15:00:40;;;;;;;20.13;7.28;;;16.00;60.40;;;;;;5968842;29;20065;-79
2022/12/26 15:03:43;;;;;;;19.65;7.80;;;16.00;60.50;;;;;;5982610;29;20133;-79
2022/12/26 15:07:17;;;;;;;23.00;8.68;;;15.90;60.60;;;;;;5982690;29;20472;-79
2022/12/26 15:10:51;;;;;;;16.90;8.02;;;15.80;60.80;;;;;;5987412;29;20046;-80
2022/12/26 15:14:40;;;;;;;23.05;8.52;;;15.80;61.00;;;;;;5991649;29;20428;-79
2022/12/26 15:18:02;;;;;;;21.63;8.32;;;15.70;61.10;;;;;;5897640;30;20064;-78
2022/12/26 15:21:27;;;;;;;22.30;7.50;;;15.70;61.10;;;;;;5884145;30;20052;-79
2022/12/26 15:24:31;;;;;;;17.90;7.32;;;15.70;61.20;;;;;;5898131;30;20050;-78
2022/12/26 15:27:47;;;;;;;19.67;7.97;;;15.60;61.10;;;;;;5893201;30;20040;-78
2022/12/26 15:31:25;;;;;;;17.42;6.90;;;15.60;61.20;;;;;;5888253;30;20059;-78
2022/12/26 15:34:58;;;;;;;18.45;6.97;;;15.60;61.20;;;;;;5896747;30;20047;-78
2022/12/26 15:38:11;;;;;;;14.35;7.05;;;15.60;61.20;;;;;;5899498;30;20093;-78
2022/12/26 15:41:25;;;;;;;21.75;7.72;;;15.70;61.30;;;;;;5896056;30;20458;-79
2022/12/26 15:44:50;;;;;;;15.07;8.05;;;15.60;61.10;;;;;;5905223;30;20059;-78
2022/12/26 15:48:00;;;;;;;18.58;7.78;;;15.60;61.20;;;;;;5905113;30;20052;-81
2022/12/26 15:51:13;;;;;;;16.20;7.28;;;15.60;61.00;;;;;;5903744;30;20040;-78
2022/12/26 15:55:02;;;;;;;13.23;7.63;;;15.60;61.20;;;;;;5943931;29;20051;-79
2022/12/26 15:58:29;;;;;;;16.70;8.38;;;15.60;61.20;;;;;;5882158;30;20150;-80
2022/12/26 16:01:52;;;;;;;15.95;7.80;;;15.60;61.20;;;;;;5908511;29;20032;-77
2022/12/26 16:05:17;;;;;;;20.90;8.35;;;15.60;61.30;;;;;;5889018;30;20483;-77
2022/12/26 16:08:26;;;;;;;17.52;8.63;;;15.60;61.30;;;;;;5922129;30;20046;-78
2022/12/26 16:11:41;;;;;;;18.83;7.85;;;15.60;61.30;;;;;;5922698;30;20055;-76
2022/12/26 16:14:43;;;;;;;19.85;7.82;;;15.50;61.30;;;;;;5918228;30;20048;-77
2022/12/26 16:17:45;;;;;;;20.75;8.23;;;15.60;61.30;;;;;;5904363;30;20035;-76
2022/12/26 16:24:10;;;;;;;16.83;7.22;;;15.50;61.40;;;;;;5892341;29;20043;-77
2022/12/26 16:27:19;;;;;;;15.57;7.57;;;15.50;61.50;;;;;;5893746;30;20218;-77
2022/12/26 16:30:25;;;;;;;13.57;6.97;;;15.50;61.60;;;;;;5889047;30;20577;-76
2022/12/26 16:33:37;;;;;;;16.08;6.60;;;15.50;61.40;;;;;;5916419;29;20051;-76
2022/12/26 16:36:39;;;;;;;21.92;9.35;;;15.50;61.40;;;;;;5980738;29;20188;-76
2022/12/26 16:39:40;;;;;;;40.03;10.75;;;15.50;61.40;;;;;;5979604;29;20041;-76
2022/12/26 16:43:05;;;;;;;19.90;8.88;;;15.30;61.40;;;;;;5977431;29;20050;-77
2022/12/26 16:46:11;;;;;;;23.70;8.13;;;15.50;61.50;;;;;;5939399;29;20460;-76
2022/12/26 16:49:12;;;;;;;15.93;7.38;;;15.50;61.50;;;;;;5979970;29;20061;-76
2022/12/26 16:52:33;;;;;;;19.38;7.13;;;15.50;61.60;;;;;;5974484;29;20054;-80
2022/12/26 16:55:39;;;;;;;29.10;12.13;;;15.40;61.70;;;;;;5984706;29;20034;-76
2022/12/26 16:58:40;;;;;;;16.98;8.52;;;15.40;61.90;;;;;;5980292;29;20046;-75
2022/12/26 17:01:54;;;;;;;31.20;8.25;;;15.40;62.00;;;;;;5979483;29;20034;-76
2022/12/26 17:05:24;;;;;;;17.10;8.13;;;15.30;62.10;;;;;;5985919;29;20057;-77
2022/12/26 17:08:26;;;;;;;14.48;6.38;;;15.30;62.30;;;;;;5980392;29;20042;-76
2022/12/26 17:11:29;;;;;;;18.98;6.63;;;15.30;62.30;;;;;;5980526;29;20086;-76
2022/12/26 17:14:33;;;;;;;11.10;5.80;;;15.20;62.20;;;;;;5979540;29;20046;-75
2022/12/26 17:17:36;;;;;;;16.25;5.93;;;15.10;62.20;;;;;;5977644;29;20110;-76
2022/12/26 17:20:39;;;;;;;13.60;6.43;;;15.10;62.30;;;;;;5971884;29;20030;-74
2022/12/26 17:23:41;;;;;;;13.68;6.18;;;15.10;62.40;;;;;;5971819;29;20049;-75
2022/12/26 17:26:48;;;;;;;12.38;6.53;;;15.10;62.40;;;;;;5987088;29;20042;-75
2022/12/26 17:29:51;;;;;;;15.40;6.50;;;15.10;62.50;;;;;;5971932;29;20042;-75
2022/12/26 17:32:52;;;;;;;10.25;5.68;;;15.10;62.40;;;;;;5986391;29;20038;-76
2022/12/26 17:36:06;;;;;;;17.17;6.60;;;15.10;62.30;;;;;;5984007;29;20053;-75
2022/12/26 17:39:17;;;;;;;13.23;6.28;;;15.10;62.10;;;;;;5978433;29;20484;-76
2022/12/26 17:42:19;;;;;;;16.35;7.20;;;15.10;61.90;;;;;;5992398;29;20035;-75
2022/12/26 17:45:24;;;;;;;12.80;6.65;;;15.00;61.80;;;;;;5978099;29;20045;-75
2022/12/26 17:48:25;;;;;;;15.55;7.35;;;15.00;62.00;;;;;;5978243;29;20031;-75
2022/12/26 17:51:29;;;;;;;18.80;7.70;;;15.00;62.20;;;;;;5981062;29;20077;-75
2022/12/26 17:54:30;;;;;;;17.70;6.40;;;14.90;62.20;;;;;;5978667;29;20051;-75
2022/12/26 17:57:31;;;;;;;16.80;6.70;;;14.90;62.40;;;;;;5964970;29;20487;-75
2022/12/26 18:00:32;;;;;;;20.75;7.32;;;14.90;62.60;;;;;;5979641;29;20035;-76
2022/12/26 18:03:33;;;;;;;12.23;6.60;;;14.80;62.70;;;;;;5984001;29;20030;-75
2022/12/26 18:06:35;;;;;;;12.02;5.97;;;14.80;62.90;;;;;;5965324;29;20038;-74
2022/12/26 18:09:36;;;;;;;10.32;6.00;;;14.80;63.00;;;;;;5984782;29;20030;-74
2022/12/26 18:12:37;;;;;;;15.80;7.10;;;14.80;63.00;;;;;;5975036;29;20033;-74
2022/12/26 18:15:39;;;;;;;16.73;7.50;;;14.80;63.00;;;;;;5959474;29;20134;-75
2022/12/26 18:18:43;;;;;;;15.23;7.43;;;14.80;63.20;;;;;;5980325;29;20467;-74
2022/12/26 18:21:44;;;;;;;17.98;7.60;;;14.80;63.20;;;;;;5986086;29;20453;-74